Kezdőlap
METAR-TAF:

METAR-TAF

Repülőterek :

Oelwein Municipal Airport

Oelwein, Iowa, Amerikai Egyesült Államok

földrajzi szélesség: 42-40-51N, földrajzi hosszúság: 091-58-28W, magasság: 328 m

Jelenlegi meteorológiai megfigyelések

A jelentés 22 perccel ezelõtt készült, 12:55 UTC
Észak-északnyugati szél 4 kt
Hőmérséklet -17°C
Páratartalom 100%
Légköri nyomás 1019 hPa
Látótávolság: 16.1 km
Derült ég

METAR: KOLZ 151255Z AUTO 33004KT 10SM CLR M17/M17 A3009 RMK A01

Idő: 07:17 (13:17 UTC)


TAF: hiányzik

Meteorológiai megfigyelések és előrejelzések több, mint 4000 repülőtéren (METAR és TAF jelentéseket).

A térképen piros és sárga pontok jelzik az elérhető meteorológiai állomásokat.

Mozgassa az egeret a pont fölött, hogy megjelenjen az állomás neve.

Azután kattintson az időjárási megfigyelések és előrejelzések megtekintéséhez.

A térkép megváltoztatása: kattintson a fekete keresztel jelölt zöld gombra ráközelítéshez, a vonallal jelölt zöld gombra távolításhoz, vagy a zöld nyilakra a szomszédos térképek eléréséhez.


METAR-TAF: